ěÝzenÝ letovÚho provozu ╚eskÚ republiky
Letiste: LKNA Aktualizace: 28.03.2023 17:59:38  UTC
 METAR LKNA 28.03. 18:00 ...
METAR LKNA 281800Z 31008KT CAVOK 01/M10 Q1022 NOSIG RMK BLU BLU=
 TAF LKNA 28.03. 17:00 ...
TAF LKNA 281700Z 2818/2918 30007KT CAVOK      TEMPO 2818/2821 31014G24KT      BECMG 2904/2906 19005KT=